createdAt,value
2023-02-19T00:01:44.074Z,100607.50
2023-02-19T00:04:14.963Z,100614.38
2023-02-19T00:06:42.559Z,100621.28
2023-02-19T00:09:11.515Z,100622.13
2023-02-19T00:11:38.693Z,100636.81
2023-02-19T00:14:06.467Z,100635.94
2023-02-19T00:16:37.033Z,100647.13
2023-02-19T00:19:05.754Z,100658.28
2023-02-19T00:21:32.878Z,100661.75
2023-02-19T00:24:03.081Z,100662.59
2023-02-19T00:26:30.099Z,100666.03
2023-02-19T00:28:57.742Z,100671.22
2023-02-19T00:31:27.486Z,100670.28
2023-02-19T00:33:57.661Z,100670.25
2023-02-19T00:36:25.335Z,100663.28
2023-02-19T00:38:52.506Z,100672.75
2023-02-19T00:41:22.058Z,100668.31
2023-02-19T00:49:04.186Z,100682.59
2023-02-19T00:51:33.214Z,100687.53
2023-02-19T00:54:00.294Z,100683.97
2023-02-19T00:56:28.006Z,100693.44
2023-02-19T00:58:55.274Z,100693.31
2023-02-19T01:01:21.982Z,100699.28
2023-02-19T01:03:49.006Z,100692.44
2023-02-19T01:06:17.793Z,100689.03
2023-02-19T01:08:45.155Z,100695.13
2023-02-19T01:11:13.050Z,100695.00
2023-02-19T01:13:40.459Z,100699.41
2023-02-19T01:16:12.408Z,100703.72
2023-02-19T01:18:39.113Z,100696.81
2023-02-19T01:21:11.468Z,100695.06
2023-02-19T01:23:40.431Z,100694.28
2023-02-19T01:26:10.623Z,100695.97
2023-02-19T01:28:38.786Z,100699.38
2023-02-19T01:31:09.778Z,100695.94
2023-02-19T01:33:38.687Z,100688.97
2023-02-19T01:36:08.079Z,100690.78
2023-02-19T01:38:36.309Z,100689.03
2023-02-19T01:41:07.792Z,100699.31
2023-02-19T01:43:56.255Z,100708.06
2023-02-19T01:46:28.324Z,100718.41
2023-02-19T01:49:00.454Z,100721.84
2023-02-19T01:51:28.202Z,100718.47
2023-02-19T01:53:59.049Z,100728.84
2023-02-19T01:56:28.474Z,100740.84
2023-02-19T01:58:55.411Z,100744.34
2023-02-19T02:01:22.031Z,100752.06
2023-02-19T02:03:49.665Z,100750.44
2023-02-19T02:06:23.296Z,100746.97
2023-02-19T02:09:13.295Z,100759.09
2023-02-19T02:11:45.139Z,100759.94
2023-02-19T02:14:12.391Z,100756.47
2023-02-19T02:27:51.596Z,100766.75
2023-02-19T02:30:30.278Z,100773.56
2023-02-19T02:33:06.834Z,100774.28
2023-02-19T02:35:39.848Z,100788.94
2023-02-19T02:38:10.134Z,100791.44
2023-02-19T02:40:39.835Z,100787.06
2023-02-19T02:43:06.925Z,100796.44
2023-02-19T02:45:37.217Z,100799.78
2023-02-19T02:48:26.949Z,100792.81
2023-02-19T02:54:05.522Z,100797.16
2023-02-19T02:56:32.939Z,100804.06
2023-02-19T02:59:02.368Z,100808.09
2023-02-19T03:01:56.837Z,100812.44
2023-02-19T03:05:03.486Z,100804.50
2023-02-19T03:07:36.233Z,100813.94
2023-02-19T03:10:07.212Z,100819.81
2023-02-19T03:12:57.621Z,100823.19
2023-02-19T03:15:48.970Z,100822.16
2023-02-19T03:18:38.290Z,100815.25
2023-02-19T03:21:07.288Z,100812.69
2023-02-19T03:23:55.970Z,100817.81
2023-02-19T03:26:25.486Z,100827.06
2023-02-19T03:29:13.360Z,100820.38
2023-02-19T03:31:43.323Z,100823.00
2023-02-19T03:34:20.715Z,100827.38
2023-02-19T03:36:55.575Z,100823.91
2023-02-19T03:39:23.810Z,100821.97
2023-02-19T03:42:00.981Z,100835.94
2023-02-19T03:44:58.093Z,100837.72
2023-02-19T03:47:29.044Z,100853.16
2023-02-19T03:50:09.015Z,100864.56
2023-02-19T03:55:39.722Z,100881.94
2023-02-19T03:58:16.550Z,100888.00
2023-02-19T04:00:54.093Z,100894.91
2023-02-19T04:03:43.808Z,100899.28
2023-02-19T04:06:13.953Z,100899.06
2023-02-19T04:08:45.820Z,100909.66
2023-02-19T04:11:15.582Z,100915.69
2023-02-19T04:13:48.505Z,100922.50
2023-02-19T04:16:24.179Z,100921.72
2023-02-19T04:18:56.645Z,100926.88
2023-02-19T04:21:24.403Z,100918.22
2023-02-19T04:23:51.292Z,100935.41
2023-02-19T04:26:22.464Z,100918.81
2023-02-19T04:28:49.012Z,100925.53
2023-02-19T04:31:15.647Z,100941.94
2023-02-19T04:33:42.251Z,100930.66
2023-02-19T04:36:11.073Z,100933.28
2023-02-19T04:38:37.762Z,100932.28
2023-02-19T04:41:04.450Z,100937.41
2023-02-19T04:43:30.965Z,100942.41
2023-02-19T04:46:01.668Z,100956.00
2023-02-19T04:48:28.623Z,100960.13
2023-02-19T04:50:55.235Z,100960.00
2023-02-19T04:53:21.881Z,100945.03
2023-02-19T04:55:48.551Z,100962.47
2023-02-19T04:58:15.062Z,100949.50
2023-02-19T05:00:41.602Z,100957.88
2023-02-19T05:03:08.191Z,100955.16
2023-02-19T05:05:35.518Z,100958.63
2023-02-19T05:08:02.024Z,100963.53
2023-02-19T05:10:28.571Z,100967.03
2023-02-19T05:12:57.818Z,100972.28
2023-02-19T05:15:24.508Z,100975.75
2023-02-19T05:17:51.055Z,100979.00
2023-02-19T05:20:17.730Z,100989.25
2023-02-19T05:22:44.257Z,100995.88
2023-02-19T05:25:10.786Z,100984.59
2023-02-19T05:27:37.312Z,100999.28
2023-02-19T05:30:04.209Z,101019.81
2023-02-19T05:32:30.768Z,101028.44
2023-02-19T05:34:57.326Z,101030.03
2023-02-19T05:37:23.873Z,101039.38
2023-02-19T05:39:50.432Z,101048.84
2023-02-19T05:42:17.074Z,101055.81
2023-02-19T05:44:43.786Z,101052.31
2023-02-19T05:47:10.462Z,101055.56
2023-02-19T05:49:37.112Z,101062.50
2023-02-19T05:52:04.477Z,101052.09
2023-02-19T05:54:31.742Z,101051.97
2023-02-19T05:56:58.444Z,101049.03
2023-02-19T05:59:26.138Z,101049.78
2023-02-19T06:01:54.299Z,101044.63
2023-02-19T06:04:21.096Z,101047.13
2023-02-19T06:06:48.148Z,101044.47
2023-02-19T06:09:14.694Z,101035.03
2023-02-19T06:11:43.310Z,101047.59
2023-02-19T06:14:12.684Z,101051.13
2023-02-19T06:16:39.316Z,101072.63
2023-02-19T06:19:05.921Z,101071.75
2023-02-19T06:21:32.597Z,101076.88
2023-02-19T06:23:59.350Z,101085.56
2023-02-19T06:26:25.963Z,101086.34
2023-02-19T06:28:53.463Z,101095.78
2023-02-19T06:31:22.374Z,101094.03
2023-02-19T06:33:50.703Z,101087.19
2023-02-19T06:36:22.542Z,101080.22
2023-02-19T06:38:49.466Z,101087.09
2023-02-19T06:41:16.309Z,101088.78
2023-02-19T06:43:43.168Z,101100.84
2023-02-19T06:46:12.080Z,101095.69
2023-02-19T06:48:40.137Z,101102.41
2023-02-19T06:51:07.109Z,101099.84
2023-02-19T06:53:33.618Z,101098.13
2023-02-19T06:56:03.613Z,101088.69
2023-02-19T06:58:30.838Z,101093.75
2023-02-19T07:00:57.711Z,101105.81
2023-02-19T07:03:26.279Z,101122.19
2023-02-19T07:05:53.343Z,101133.34
2023-02-19T07:08:19.968Z,101147.22
2023-02-19T07:10:53.719Z,101145.47
2023-02-19T07:13:20.301Z,101145.47
2023-02-19T07:15:46.821Z,101136.81
2023-02-19T07:18:13.411Z,101135.06
2023-02-19T07:20:39.971Z,101147.03
2023-02-19T07:23:06.544Z,101158.16
2023-02-19T07:25:33.068Z,101176.31
2023-02-19T07:27:59.594Z,101181.38
2023-02-19T07:30:26.213Z,101183.16
2023-02-19T07:32:52.832Z,101191.88
2023-02-19T07:35:19.366Z,101202.06
2023-02-19T07:37:45.905Z,101216.75
2023-02-19T07:40:12.458Z,101221.03
2023-02-19T07:42:39.128Z,101219.38
2023-02-19T07:45:06.207Z,101212.53
2023-02-19T07:47:32.766Z,101197.03
2023-02-19T07:49:59.320Z,101187.50
2023-02-19T07:52:25.896Z,101198.75
2023-02-19T07:54:52.496Z,101200.50
2023-02-19T07:57:19.069Z,101196.13
2023-02-19T07:59:45.949Z,101205.28
2023-02-19T08:02:37.743Z,101195.88
2023-02-19T08:05:06.237Z,101185.13
2023-02-19T08:07:34.372Z,101182.59
2023-02-19T08:10:21.246Z,101178.44
2023-02-19T08:13:16.877Z,101183.00
2023-02-19T08:15:43.604Z,101175.16
2023-02-19T08:18:10.832Z,101169.72
2023-02-19T08:20:37.406Z,101176.41
2023-02-19T08:23:04.467Z,101178.06
2023-02-19T08:25:31.120Z,101184.94
2023-02-19T08:27:57.689Z,101202.97
2023-02-19T08:30:24.349Z,101212.25
2023-02-19T08:32:50.986Z,101212.84
2023-02-19T08:35:17.680Z,101222.22
2023-02-19T08:37:44.402Z,101237.38
2023-02-19T08:40:11.443Z,101239.38
2023-02-19T08:42:38.344Z,101241.22
2023-02-19T08:45:05.738Z,101251.75
2023-02-19T08:47:34.855Z,101250.50
2023-02-19T08:50:02.251Z,101247.47
2023-02-19T08:52:28.803Z,101246.16
2023-02-19T08:54:55.368Z,101243.06
2023-02-19T08:57:22.297Z,101253.75
2023-02-19T08:59:48.877Z,101269.69
2023-02-19T09:02:15.432Z,101289.03
2023-02-19T09:04:41.994Z,101283.09
2023-02-19T09:07:11.060Z,101291.03
2023-02-19T09:09:38.191Z,101275.41
2023-02-19T09:12:06.408Z,101272.66
2023-02-19T09:14:34.524Z,101266.31
2023-02-19T09:17:01.793Z,101253.84
2023-02-19T09:19:28.600Z,101248.56
2023-02-19T09:21:55.641Z,101246.78
2023-02-19T09:24:22.746Z,101265.06
2023-02-19T09:26:50.243Z,101274.44
2023-02-19T09:29:17.215Z,101266.44
2023-02-19T09:31:44.126Z,101269.25
2023-02-19T09:34:11.811Z,101280.25
2023-02-19T09:36:39.120Z,101277.88
2023-02-19T09:39:07.744Z,101264.97
2023-02-19T09:41:37.928Z,101278.84
2023-02-19T09:44:09.947Z,101295.31
2023-02-19T09:46:42.944Z,101289.97
2023-02-19T09:52:07.785Z,101300.81
2023-02-19T09:54:36.689Z,101294.22
2023-02-19T09:57:04.288Z,101310.09
2023-02-19T09:59:40.092Z,101311.88
2023-02-19T10:04:52.244Z,101311.03
2023-02-19T10:07:25.027Z,101312.75
2023-02-19T10:09:57.530Z,101328.44
2023-02-19T10:12:28.532Z,101328.25
2023-02-19T10:15:05.577Z,101336.91
2023-02-19T10:17:34.709Z,101329.16
2023-02-19T10:20:04.256Z,101323.84
2023-02-19T10:22:34.003Z,101318.47
2023-02-19T10:25:00.590Z,101302.44
2023-02-19T10:27:31.160Z,101318.69
2023-02-19T10:29:59.036Z,101319.03
2023-02-19T10:32:27.690Z,101313.31
2023-02-19T10:35:13.893Z,101325.03
2023-02-19T10:37:50.676Z,101317.06
2023-02-19T10:40:23.415Z,101323.81
2023-02-19T10:42:55.946Z,101336.03
2023-02-19T10:45:30.329Z,101328.75
2023-02-19T10:47:57.241Z,101322.56
2023-02-19T10:50:32.424Z,101319.28
2023-02-19T10:53:00.962Z,101298.50
2023-02-19T10:58:28.724Z,101307.81
2023-02-19T11:01:19.924Z,101310.31
2023-02-19T11:03:49.553Z,101314.19
2023-02-19T11:06:20.290Z,101310.06
2023-02-19T11:11:33.117Z,101312.44
2023-02-19T11:14:05.158Z,101303.84
2023-02-19T11:16:41.276Z,101315.25
2023-02-19T11:19:33.166Z,101319.69
2023-02-19T11:22:01.335Z,101311.00
2023-02-19T11:24:34.912Z,101308.44
2023-02-19T11:27:05.833Z,101317.13
2023-02-19T11:29:35.445Z,101324.09
2023-02-19T11:32:26.836Z,101319.75
2023-02-19T11:35:14.602Z,101326.72
2023-02-19T11:38:02.033Z,101320.63
2023-02-19T11:40:39.919Z,101315.44
2023-02-19T11:43:46.249Z,101306.66
2023-02-19T11:49:29.086Z,101307.50
2023-02-19T12:08:49.862Z,101277.13
2023-02-19T12:17:01.977Z,101281.44
2023-02-19T12:33:55.878Z,101264.94
2023-02-19T12:45:24.441Z,101257.97
2023-02-19T12:48:13.994Z,101246.66
2023-02-19T12:50:42.039Z,101241.47
2023-02-19T12:53:31.130Z,101234.53
2023-02-19T12:56:03.313Z,101235.41
2023-02-19T12:58:39.531Z,101246.69
2023-02-19T13:01:08.809Z,101238.84
2023-02-19T13:03:41.798Z,101231.03
2023-02-19T13:11:28.133Z,101218.84
2023-02-19T13:14:00.956Z,101217.09
2023-02-19T13:16:33.192Z,101211.00
2023-02-19T13:19:03.640Z,101217.06
2023-02-19T13:21:53.275Z,101210.97
2023-02-19T13:32:50.444Z,101201.47
2023-02-19T13:35:56.779Z,101198.91
2023-02-19T13:38:23.892Z,101204.97
2023-02-19T13:41:00.266Z,101203.22
2023-02-19T13:43:28.342Z,101217.91
2023-02-19T13:45:59.224Z,101209.25
2023-02-19T13:48:32.123Z,101210.09
2023-02-19T13:59:37.339Z,101193.50
2023-02-19T14:07:33.724Z,101193.47
2023-02-19T14:10:01.997Z,101209.06
2023-02-19T14:12:35.734Z,101202.09
2023-02-19T14:18:02.086Z,101184.69
2023-02-19T14:20:45.825Z,101185.53
2023-02-19T14:23:22.909Z,101184.69
2023-02-19T14:25:53.714Z,101186.41
2023-02-19T14:34:18.630Z,101174.19
2023-02-19T14:36:51.718Z,101166.38
2023-02-19T14:39:24.547Z,101158.59
2023-02-19T14:41:54.221Z,101151.66
2023-02-19T14:44:25.836Z,101143.00
2023-02-19T14:52:08.510Z,101135.19
2023-02-19T14:57:39.803Z,101123.88
2023-02-19T15:02:59.758Z,101129.06
2023-02-19T15:05:30.825Z,101108.28
2023-02-19T15:08:01.144Z,101111.72
2023-02-19T15:10:30.688Z,101103.91
2023-02-19T15:13:01.247Z,101092.69
2023-02-19T15:15:32.616Z,101095.28
2023-02-19T15:18:01.190Z,101087.47
2023-02-19T15:20:30.818Z,101089.16
2023-02-19T15:22:59.682Z,101087.44
2023-02-19T15:25:33.712Z,101083.13
2023-02-19T15:28:21.437Z,101077.88
2023-02-19T15:30:48.186Z,101077.91
2023-02-19T15:33:18.114Z,101080.50
2023-02-19T15:35:53.807Z,101080.41
2023-02-19T15:38:20.747Z,101077.88
2023-02-19T15:40:48.796Z,101080.44
2023-02-19T15:46:08.085Z,101082.16
2023-02-19T15:49:14.440Z,101076.91
2023-02-19T15:51:47.316Z,101075.22
2023-02-19T15:54:26.996Z,101071.72
2023-02-19T15:56:57.956Z,101066.50
2023-02-19T16:02:01.656Z,101070.84
2023-02-19T16:04:28.247Z,101072.56
2023-02-19T16:06:59.203Z,101079.47
2023-02-19T16:09:39.622Z,101072.53
2023-02-19T16:12:24.681Z,101068.16
2023-02-19T16:14:51.234Z,101067.28
2023-02-19T16:17:23.038Z,101067.28
2023-02-19T16:19:55.198Z,101068.97
2023-02-19T16:22:25.503Z,101067.22
2023-02-19T16:24:57.785Z,101062.84
2023-02-19T16:27:36.473Z,101066.25
2023-02-19T16:30:10.583Z,101057.56
2023-02-19T16:32:37.227Z,101054.03
2023-02-19T16:35:04.415Z,101055.75
2023-02-19T16:37:37.301Z,101050.53
2023-02-19T16:45:47.509Z,101046.94
2023-02-19T16:48:14.279Z,101038.25
2023-02-19T16:50:42.211Z,101043.38
2023-02-19T16:53:18.535Z,101055.44
2023-02-19T16:55:45.083Z,101050.22
2023-02-19T16:58:11.633Z,101039.81
2023-02-19T17:00:38.277Z,101038.03
2023-02-19T17:03:10.300Z,101018.94
2023-02-19T17:05:38.875Z,101024.13
2023-02-19T17:08:42.333Z,101016.19
2023-02-19T17:11:14.941Z,101010.16
2023-02-19T17:13:42.521Z,101010.09
2023-02-19T17:16:17.904Z,101020.41
2023-02-19T17:18:44.511Z,101030.78
2023-02-19T17:23:57.532Z,101016.81
2023-02-19T17:26:27.819Z,101016.81
2023-02-19T17:28:57.079Z,101021.97
2023-02-19T17:31:23.860Z,101031.41
2023-02-19T17:33:51.171Z,101025.34
2023-02-19T17:36:21.057Z,101014.09
2023-02-19T17:38:47.683Z,101021.81
2023-02-19T17:41:14.233Z,101022.66
2023-02-19T17:43:40.884Z,101014.81
2023-02-19T17:46:13.479Z,101014.81
2023-02-19T17:48:40.108Z,101007.88
2023-02-19T17:51:06.746Z,101005.22
2023-02-19T17:53:33.320Z,100999.16
2023-02-19T17:55:59.854Z,101003.44
2023-02-19T17:58:26.497Z,100993.91
2023-02-19T18:00:53.439Z,100988.69
2023-02-19T18:03:20.087Z,101014.53
2023-02-19T18:05:46.630Z,101018.84
2023-02-19T18:08:13.873Z,101019.66
2023-02-19T18:10:40.403Z,101010.91
2023-02-19T18:13:07.012Z,101010.91
2023-02-19T18:15:33.734Z,101016.09
2023-02-19T18:18:00.255Z,101006.59
2023-02-19T18:20:28.591Z,101001.38
2023-02-19T18:22:56.580Z,100994.44
2023-02-19T18:25:23.585Z,100998.72
2023-02-19T18:27:50.271Z,100995.22
2023-02-19T18:30:19.432Z,100994.31
2023-02-19T18:32:48.583Z,101007.25
2023-02-19T18:35:16.589Z,101006.34
2023-02-19T18:37:43.302Z,101009.75
2023-02-19T18:40:10.909Z,101011.41
2023-02-19T18:42:37.584Z,101007.03
2023-02-19T18:45:04.804Z,101007.03
2023-02-19T18:47:31.353Z,101015.59
2023-02-19T18:49:59.270Z,101010.41
2023-02-19T18:52:27.210Z,101016.41
2023-02-19T18:54:55.614Z,101015.47
2023-02-19T18:57:24.272Z,101018.00
2023-02-19T18:59:51.280Z,101019.69
2023-02-19T19:02:18.161Z,101014.50
2023-02-19T19:04:50.068Z,101008.38
2023-02-19T19:07:17.122Z,101010.91
2023-02-19T19:09:43.684Z,101021.16
2023-02-19T19:12:10.245Z,101025.47
2023-02-19T19:14:37.446Z,101036.59
2023-02-19T19:17:04.210Z,101027.00
2023-02-19T19:19:30.757Z,101021.81
2023-02-19T19:21:57.460Z,101014.84
2023-02-19T19:24:25.089Z,101013.91
2023-02-19T19:26:52.071Z,101012.00
2023-02-19T19:29:22.028Z,101012.84
2023-02-19T19:31:49.302Z,101011.03
2023-02-19T19:34:16.460Z,100994.59
2023-02-19T19:36:43.468Z,100994.53
2023-02-19T19:39:10.027Z,100987.59
2023-02-19T19:41:36.632Z,100995.28
2023-02-19T19:44:04.978Z,101006.41
2023-02-19T19:46:32.753Z,101003.72
2023-02-19T19:48:59.446Z,101013.97
2023-02-19T19:51:34.355Z,101002.63
2023-02-19T19:54:04.088Z,101001.78
2023-02-19T19:56:31.238Z,101001.63
2023-02-19T19:58:57.848Z,100999.00
2023-02-19T20:01:24.654Z,101001.47
2023-02-19T20:03:51.290Z,101011.75
2023-02-19T20:06:27.391Z,101015.94
2023-02-19T20:08:54.283Z,101021.91
2023-02-19T20:11:20.889Z,101032.16
2023-02-19T20:13:47.454Z,101024.34
2023-02-19T20:16:14.726Z,101026.03
2023-02-19T20:18:41.996Z,101032.00
2023-02-19T20:21:10.861Z,101029.31
2023-02-19T20:23:39.865Z,101026.63
2023-02-19T20:26:06.988Z,101021.41
2023-02-19T20:28:33.681Z,101022.19
2023-02-19T20:31:00.294Z,101022.09
2023-02-19T20:33:26.904Z,101022.03
2023-02-19T20:35:53.508Z,101021.16
2023-02-19T20:38:20.081Z,101020.16
2023-02-19T20:40:46.717Z,101023.47
2023-02-19T20:43:13.266Z,101028.63
2023-02-19T20:45:41.073Z,101022.53
2023-02-19T20:48:07.646Z,101021.56
2023-02-19T20:50:34.247Z,101019.00
2023-02-19T20:53:01.207Z,101030.03
2023-02-19T20:55:28.755Z,101024.00
2023-02-19T20:57:55.346Z,101023.06
2023-02-19T21:00:22.167Z,101019.53
2023-02-19T21:02:48.811Z,101020.28
2023-02-19T21:05:17.516Z,101025.38
2023-02-19T21:07:44.092Z,101025.31
2023-02-19T21:10:10.768Z,101026.94
2023-02-19T21:12:37.366Z,101025.16
2023-02-19T21:15:05.596Z,101026.81
2023-02-19T21:17:32.200Z,101036.16
2023-02-19T21:19:58.768Z,101031.81
2023-02-19T21:22:25.408Z,101019.72
2023-02-19T21:24:53.238Z,101024.00
2023-02-19T21:27:20.445Z,101024.78
2023-02-19T21:29:47.466Z,101024.72
2023-02-19T21:32:14.158Z,101022.06
2023-02-19T21:34:40.772Z,101022.91
2023-02-19T21:37:07.338Z,101012.50
2023-02-19T21:39:34.683Z,101009.09
2023-02-19T21:42:01.708Z,101008.13
2023-02-19T21:44:28.262Z,100998.72
2023-02-19T21:46:54.826Z,101011.53
2023-02-19T21:49:21.409Z,101026.09
2023-02-19T21:51:49.653Z,101031.31
2023-02-19T21:54:24.566Z,101028.72
2023-02-19T21:56:53.191Z,101033.78
2023-02-19T21:59:20.942Z,101026.94
2023-02-19T22:01:48.156Z,101026.00
2023-02-19T22:04:16.490Z,101032.91
2023-02-19T22:06:43.612Z,101031.97
2023-02-19T22:09:11.194Z,101028.53
2023-02-19T22:11:38.206Z,101038.81
2023-02-19T22:14:04.818Z,101031.88
2023-02-19T22:16:31.587Z,101025.75
2023-02-19T22:18:59.818Z,101025.66
2023-02-19T22:21:29.487Z,101020.41
2023-02-19T22:23:56.057Z,101023.78
2023-02-19T22:28:59.591Z,101021.00
2023-02-19T22:31:27.515Z,101022.63
2023-02-19T22:33:57.564Z,101024.19
2023-02-19T22:36:26.774Z,101024.09
2023-02-19T22:38:54.018Z,101021.47
2023-02-19T22:41:21.563Z,101019.63
2023-02-19T22:43:48.853Z,101014.50
2023-02-19T22:46:20.546Z,101011.81
2023-02-19T22:48:47.212Z,101010.09
2023-02-19T22:51:16.495Z,101014.41
2023-02-19T22:56:23.918Z,101017.72
2023-02-19T22:58:51.212Z,101015.94
2023-02-19T23:01:18.335Z,101017.63
2023-02-19T23:04:02.217Z,101011.53
2023-02-19T23:06:32.170Z,101010.56
2023-02-19T23:09:03.929Z,100996.84
2023-02-19T23:11:33.889Z,101000.25
2023-02-19T23:14:00.523Z,100996.75
2023-02-19T23:16:27.732Z,100990.69
2023-02-19T23:18:54.772Z,100998.44
2023-02-19T23:21:22.287Z,100991.53
2023-02-19T23:23:48.900Z,100983.78
2023-02-19T23:26:16.315Z,100989.78
2023-02-19T23:28:43.834Z,100991.44
2023-02-19T23:31:11.388Z,100986.31
2023-02-19T23:33:38.901Z,100968.19
2023-02-19T23:36:06.456Z,100964.75
2023-02-19T23:38:33.011Z,100966.50
2023-02-19T23:41:00.015Z,100953.56
2023-02-19T23:43:26.714Z,100953.56
2023-02-19T23:45:53.530Z,100950.06
2023-02-19T23:48:20.102Z,100955.22
2023-02-19T23:50:46.655Z,100950.06
2023-02-19T23:53:13.170Z,100950.06
2023-02-19T23:55:39.726Z,100942.34
2023-02-19T23:58:06.505Z,100943.19
